Time;durP1;ratioP1;P1;durP2;ratioP2;P2;SDS_P1;SDS_P2;PMS_P1;PMS_P2;Temp;Humidity;BMP_temperature;BMP_pressure;BME280_temperature;BME280_humidity;BME280_pressure;Samples;Min_cycle;Max_cycle;Signal;HPM_P1;HPM_P2
2024/01/10 00:03:14;;;;;;;26.88;16.38;;;;;;;;;;13129221;22;20773;-84
2024/01/10 00:08:18;;;;;;;25.95;16.42;;;;;;;;;;13105843;22;20375;-84
2024/01/10 00:13:21;;;;;;;29.45;16.30;;;;;;;;;;13105637;22;20359;-84
2024/01/10 00:18:23;;;;;;;31.45;17.60;;;;;;;;;;13105908;22;20393;-84
2024/01/10 00:23:27;;;;;;;29.30;17.67;;;;;;;;;;13106398;22;20855;-82
2024/01/10 00:28:29;;;;;;;28.03;17.23;;;;;;;;;;13107694;22;20687;-83
2024/01/10 00:33:31;;;;;;;31.35;17.17;;;;;;;;;;13115990;22;20401;-84
2024/01/10 00:38:35;;;;;;;25.98;15.68;;;;;;;;;;13106667;22;20362;-83
2024/01/10 00:43:38;;;;;;;33.25;17.30;;;;;;;;;;13106259;22;20405;-84
2024/01/10 00:48:40;;;;;;;27.13;16.77;;;;;;;;;;13106368;22;20367;-84
2024/01/10 00:53:44;;;;;;;29.35;17.05;;;;;;;;;;13105565;22;20359;-84
2024/01/10 00:58:46;;;;;;;30.10;16.23;;;;;;;;;;13129672;22;20375;-83
2024/01/10 01:03:48;;;;;;;29.38;16.55;;;;;;;;;;13108983;22;20347;-84
2024/01/10 01:08:52;;;;;;;25.33;14.87;;;;;;;;;;13109686;22;20448;-84
2024/01/10 01:13:55;;;;;;;26.37;14.53;;;;;;;;;;13108173;22;20359;-84
2024/01/10 01:18:57;;;;;;;27.10;14.32;;;;;;;;;;13108378;22;20527;-84
2024/01/10 01:24:01;;;;;;;24.40;13.87;;;;;;;;;;13109043;22;20363;-83
2024/01/10 01:29:03;;;;;;;26.55;14.85;;;;;;;;;;13121650;22;20374;-84
2024/01/10 01:34:06;;;;;;;25.48;14.13;;;;;;;;;;13108409;22;20379;-84
2024/01/10 01:39:09;;;;;;;19.35;11.80;;;;;;;;;;13108939;22;20397;-84
2024/01/10 01:44:12;;;;;;;23.30;12.10;;;;;;;;;;13110107;22;20397;-84
2024/01/10 01:49:15;;;;;;;20.48;10.80;;;;;;;;;;13109917;22;20379;-84
2024/01/10 01:54:20;;;;;;;17.17;10.43;;;;;;;;;;13109368;22;20424;-85
2024/01/10 01:59:22;;;;;;;17.08;10.32;;;;;;;;;;13108790;22;20425;-84
2024/01/10 02:04:25;;;;;;;14.82;8.98;;;;;;;;;;13107682;22;20412;-85
2024/01/10 02:09:28;;;;;;;15.68;9.18;;;;;;;;;;13107557;22;20413;-84
2024/01/10 02:14:31;;;;;;;17.50;10.93;;;;;;;;;;13108049;22;20983;-84
2024/01/10 02:19:34;;;;;;;14.27;8.70;;;;;;;;;;13108555;22;20367;-84
2024/01/10 02:24:38;;;;;;;15.23;8.93;;;;;;;;;;13117505;22;20379;-84
2024/01/10 02:29:42;;;;;;;14.67;8.93;;;;;;;;;;13107662;22;20440;-83
2024/01/10 02:34:44;;;;;;;15.00;9.05;;;;;;;;;;13108467;22;20444;-83
2024/01/10 02:39:47;;;;;;;14.38;9.02;;;;;;;;;;13107339;22;20440;-84
2024/01/10 02:44:51;;;;;;;17.05;9.10;;;;;;;;;;13107586;22;20523;-82
2024/01/10 02:49:53;;;;;;;14.40;8.73;;;;;;;;;;13103638;22;20944;-83
2024/01/10 02:54:56;;;;;;;14.75;8.73;;;;;;;;;;13126692;22;20792;-83
2024/01/10 02:59:59;;;;;;;14.33;8.27;;;;;;;;;;13107039;22;20360;-83
2024/01/10 03:05:02;;;;;;;13.33;8.07;;;;;;;;;;13098651;22;20371;-84
2024/01/10 03:10:05;;;;;;;14.55;8.45;;;;;;;;;;13093213;22;20757;-83
2024/01/10 03:15:09;;;;;;;13.35;7.70;;;;;;;;;;13093849;22;20371;-84
2024/01/10 03:20:12;;;;;;;12.60;8.07;;;;;;;;;;13105590;22;20383;-84
2024/01/10 03:25:14;;;;;;;14.20;7.88;;;;;;;;;;13099248;22;20372;-83
2024/01/10 03:30:19;;;;;;;13.63;7.47;;;;;;;;;;13098430;22;20463;-83
2024/01/10 03:35:21;;;;;;;12.82;7.10;;;;;;;;;;13097968;22;20359;-83
2024/01/10 03:40:24;;;;;;;15.68;7.53;;;;;;;;;;13098944;22;20425;-83
2024/01/10 03:45:28;;;;;;;13.27;7.03;;;;;;;;;;13097080;22;20754;-84
2024/01/10 03:50:30;;;;;;;11.47;7.10;;;;;;;;;;13097063;22;20409;-83
2024/01/10 03:55:33;;;;;;;13.90;7.35;;;;;;;;;;13097439;22;20374;-84
2024/01/10 04:00:36;;;;;;;13.23;6.93;;;;;;;;;;13097322;22;20432;-83
2024/01/10 04:05:39;;;;;;;13.70;7.22;;;;;;;;;;13097593;22;20371;-83
2024/01/10 04:10:41;;;;;;;12.07;7.23;;;;;;;;;;13098281;22;20436;-83
2024/01/10 04:15:45;;;;;;;14.43;7.00;;;;;;;;;;13106914;22;20920;-83
2024/01/10 04:20:48;;;;;;;13.00;7.38;;;;;;;;;;13096780;22;20447;-83
2024/01/10 04:25:50;;;;;;;13.70;7.82;;;;;;;;;;13097038;22;20375;-83
2024/01/10 04:30:54;;;;;;;13.70;7.20;;;;;;;;;;13096443;22;20451;-82
2024/01/10 04:35:56;;;;;;;12.33;7.47;;;;;;;;;;13101050;22;20510;-83
2024/01/10 04:40:59;;;;;;;12.10;7.22;;;;;;;;;;13102161;22;20359;-83
2024/01/10 04:46:03;;;;;;;15.18;7.00;;;;;;;;;;13101597;22;20428;-83
2024/01/10 04:51:05;;;;;;;13.82;7.47;;;;;;;;;;13101658;22;20383;-82
2024/01/10 04:56:08;;;;;;;14.20;7.70;;;;;;;;;;13074666;22;20424;-83
2024/01/10 05:01:11;;;;;;;12.93;7.83;;;;;;;;;;13100733;22;20433;-83
2024/01/10 05:06:14;;;;;;;14.02;7.32;;;;;;;;;;13100956;22;20374;-83
2024/01/10 05:11:17;;;;;;;13.07;6.95;;;;;;;;;;13117206;22;20387;-83
2024/01/10 05:16:21;;;;;;;11.43;6.82;;;;;;;;;;13100277;22;20433;-83
2024/01/10 05:21:23;;;;;;;13.95;7.43;;;;;;;;;;13101136;22;20367;-83
2024/01/10 05:26:26;;;;;;;13.40;7.25;;;;;;;;;;13100147;22;20416;-83
2024/01/10 05:31:29;;;;;;;15.10;7.65;;;;;;;;;;13098493;22;20428;-83
2024/01/10 05:36:33;;;;;;;16.48;8.65;;;;;;;;;;13100202;22;20355;-83
2024/01/10 05:41:36;;;;;;;15.68;8.60;;;;;;;;;;13100440;22;20355;-83
2024/01/10 05:46:39;;;;;;;16.07;7.83;;;;;;;;;;13099103;22;20703;-84
2024/01/10 05:51:41;;;;;;;15.40;8.32;;;;;;;;;;13098945;22;20444;-83
2024/01/10 05:56:44;;;;;;;12.40;7.07;;;;;;;;;;13099242;22;20379;-83
2024/01/10 06:01:47;;;;;;;14.77;7.05;;;;;;;;;;13096269;22;20383;-82
2024/01/10 06:06:50;;;;;;;14.38;6.65;;;;;;;;;;13103032;22;20676;-83
2024/01/10 06:11:52;;;;;;;12.35;6.60;;;;;;;;;;13094337;22;20379;-84
2024/01/10 06:16:59;;;;;;;13.05;6.40;;;;;;;;;;13093984;22;20375;-84
2024/01/10 06:22:01;;;;;;;13.87;7.17;;;;;;;;;;13098242;22;20912;-83
2024/01/10 06:27:04;;;;;;;12.18;6.53;;;;;;;;;;13098172;22;20375;-83
2024/01/10 06:32:08;;;;;;;13.32;7.20;;;;;;;;;;13095494;22;20824;-84
2024/01/10 06:37:11;;;;;;;17.13;7.70;;;;;;;;;;13091606;22;20367;-82
2024/01/10 06:42:14;;;;;;;12.03;6.50;;;;;;;;;;13094187;22;20359;-86
2024/01/10 06:47:17;;;;;;;12.73;7.07;;;;;;;;;;13092491;22;20468;-85
2024/01/10 06:52:20;;;;;;;13.38;7.22;;;;;;;;;;13092291;22;20383;-85
2024/01/10 06:57:22;;;;;;;15.80;6.85;;;;;;;;;;13094199;22;20858;-86
2024/01/10 07:02:26;;;;;;;14.37;7.43;;;;;;;;;;13111427;22;20542;-86
2024/01/10 07:07:28;;;;;;;13.32;7.00;;;;;;;;;;13105211;22;20738;-86
2024/01/10 07:12:30;;;;;;;13.80;7.47;;;;;;;;;;13099086;22;20471;-86
2024/01/10 07:17:34;;;;;;;16.27;8.23;;;;;;;;;;13100238;22;20432;-85
2024/01/10 07:22:39;;;;;;;12.80;7.53;;;;;;;;;;13104522;22;20428;-85
2024/01/10 07:27:41;;;;;;;15.38;7.88;;;;;;;;;;13107064;22;20908;-85
2024/01/10 07:32:46;;;;;;;14.97;7.57;;;;;;;;;;13106283;22;20379;-85
2024/01/10 07:37:49;;;;;;;14.07;8.60;;;;;;;;;;13110529;22;20367;-85
2024/01/10 07:42:51;;;;;;;15.18;8.48;;;;;;;;;;13106472;22;20435;-85
2024/01/10 07:47:55;;;;;;;13.98;8.60;;;;;;;;;;13106645;22;20911;-85
2024/01/10 07:52:58;;;;;;;13.80;7.82;;;;;;;;;;13106161;22;20932;-85
2024/01/10 07:58:01;;;;;;;17.90;8.90;;;;;;;;;;13113440;22;20389;-85
2024/01/10 08:03:05;;;;;;;17.03;8.67;;;;;;;;;;13107632;22;20412;-85
2024/01/10 08:08:07;;;;;;;20.63;9.17;;;;;;;;;;13106081;22;20684;-85
2024/01/10 08:13:09;;;;;;;16.63;8.65;;;;;;;;;;13103542;22;20432;-85
2024/01/10 08:18:14;;;;;;;16.93;8.27;;;;;;;;;;12916263;22;20444;-85
2024/01/10 08:23:17;;;;;;;12.93;6.88;;;;;;;;;;12851108;23;20439;-85
2024/01/10 08:28:20;;;;;;;13.80;7.20;;;;;;;;;;12850232;23;20405;-85
2024/01/10 08:33:24;;;;;;;12.57;7.05;;;;;;;;;;12851339;23;20750;-85
2024/01/10 08:38:26;;;;;;;13.48;7.20;;;;;;;;;;12846440;23;20373;-85
2024/01/10 08:43:28;;;;;;;14.00;7.70;;;;;;;;;;12850145;23;20409;-86
2024/01/10 08:48:32;;;;;;;12.02;6.80;;;;;;;;;;12850961;23;20431;-85
2024/01/10 08:53:34;;;;;;;14.77;6.47;;;;;;;;;;12850513;23;20477;-85
2024/01/10 08:58:37;;;;;;;13.75;6.47;;;;;;;;;;12851268;23;20397;-84
2024/01/10 09:03:40;;;;;;;11.50;5.70;;;;;;;;;;12858736;23;20424;-84
2024/01/10 09:08:43;;;;;;;15.20;6.10;;;;;;;;;;12857597;23;20495;-85
2024/01/10 09:13:45;;;;;;;10.00;5.60;;;;;;;;;;12881245;23;20474;-86
2024/01/10 09:18:50;;;;;;;9.13;5.23;;;;;;;;;;12851420;23;20374;-85
2024/01/10 09:23:52;;;;;;;12.98;6.47;;;;;;;;;;12854022;23;20427;-85
2024/01/10 09:28:55;;;;;;;10.38;5.20;;;;;;;;;;12853503;23;20396;-85
2024/01/10 09:33:58;;;;;;;11.23;5.95;;;;;;;;;;12853374;23;20390;-85
2024/01/10 09:39:02;;;;;;;8.57;4.85;;;;;;;;;;12853741;23;20374;-85
2024/01/10 09:44:05;;;;;;;10.53;5.27;;;;;;;;;;12854060;23;20397;-84
2024/01/10 09:49:09;;;;;;;8.57;4.70;;;;;;;;;;12854027;23;20833;-85
2024/01/10 09:54:11;;;;;;;11.73;4.82;;;;;;;;;;12853505;23;20451;-84
2024/01/10 09:59:14;;;;;;;9.02;4.80;;;;;;;;;;12855572;23;20374;-85
2024/01/10 10:04:19;;;;;;;9.47;5.33;;;;;;;;;;12864390;23;20366;-84
2024/01/10 10:09:21;;;;;;;9.20;4.97;;;;;;;;;;12853065;23;20362;-85
2024/01/10 10:14:25;;;;;;;9.57;5.30;;;;;;;;;;12853319;23;20760;-85
2024/01/10 10:19:29;;;;;;;11.33;5.47;;;;;;;;;;12853097;23;20997;-86
2024/01/10 10:24:31;;;;;;;10.07;5.20;;;;;;;;;;12852421;23;20378;-85
2024/01/10 10:29:34;;;;;;;9.70;5.03;;;;;;;;;;12853136;23;20366;-85
2024/01/10 10:34:38;;;;;;;9.70;5.00;;;;;;;;;;12852117;23;20389;-84
2024/01/10 10:39:41;;;;;;;10.38;5.07;;;;;;;;;;12853426;23;20370;-85
2024/01/10 10:44:45;;;;;;;9.02;4.80;;;;;;;;;;12852786;23;20400;-85
2024/01/10 10:49:54;;;;;;;8.52;4.50;;;;;;;;;;12851948;23;20401;-85
2024/01/10 10:54:59;;;;;;;8.63;4.47;;;;;;;;;;12852371;23;20386;-85
2024/01/10 11:00:02;;;;;;;9.90;5.22;;;;;;;;;;12866830;23;20414;-85
2024/01/10 11:05:07;;;;;;;10.48;4.95;;;;;;;;;;12859845;23;20366;-85
2024/01/10 11:10:13;;;;;;;8.75;4.72;;;;;;;;;;12851516;23;20366;-85
2024/01/10 11:15:32;;;;;;;9.20;4.82;;;;;;;;;;12851602;23;20874;-85
2024/01/10 11:20:59;;;;;;;10.73;4.78;;;;;;;;;;12851401;23;20691;-85
2024/01/10 11:26:03;;;;;;;8.90;4.38;;;;;;;;;;12851382;23;20461;-85
2024/01/10 11:31:07;;;;;;;10.27;5.13;;;;;;;;;;12851038;23;20405;-85
2024/01/10 11:36:15;;;;;;;9.83;5.00;;;;;;;;;;12851970;23;20358;-85
2024/01/10 11:41:22;;;;;;;10.27;4.50;;;;;;;;;;12851074;23;20741;-85
2024/01/10 11:46:25;;;;;;;8.82;4.60;;;;;;;;;;12852082;23;20393;-85
2024/01/10 11:51:30;;;;;;;9.60;4.83;;;;;;;;;;12851509;23;20671;-85
2024/01/10 11:56:39;;;;;;;8.93;5.30;;;;;;;;;;12862075;23;20378;-86
2024/01/10 12:01:43;;;;;;;10.80;5.07;;;;;;;;;;12856518;23;20396;-85
2024/01/10 12:06:47;;;;;;;7.93;4.93;;;;;;;;;;12848024;23;20999;-85
2024/01/10 12:11:49;;;;;;;9.43;4.80;;;;;;;;;;12847786;23;20445;-85
2024/01/10 12:16:52;;;;;;;9.38;4.97;;;;;;;;;;12850310;23;20892;-85
2024/01/10 12:21:56;;;;;;;9.18;4.88;;;;;;;;;;12849928;23;20414;-84
2024/01/10 12:26:59;;;;;;;7.60;4.55;;;;;;;;;;12848944;23;20371;-84
2024/01/10 12:32:02;;;;;;;9.38;5.40;;;;;;;;;;12846440;23;20437;-84
2024/01/10 12:37:06;;;;;;;9.63;5.13;;;;;;;;;;12844065;23;20397;-84
2024/01/10 12:42:09;;;;;;;9.73;5.40;;;;;;;;;;12844441;23;20695;-84
2024/01/10 12:47:19;;;;;;;9.05;5.15;;;;;;;;;;12848481;23;20379;-84
2024/01/10 12:52:24;;;;;;;7.93;4.60;;;;;;;;;;12870288;23;20999;-84
2024/01/10 12:57:26;;;;;;;11.00;4.88;;;;;;;;;;12889694;23;20442;-84
2024/01/10 13:02:28;;;;;;;9.65;4.95;;;;;;;;;;12855088;23;20401;-84
2024/01/10 13:07:34;;;;;;;8.25;4.28;;;;;;;;;;12852943;23;20383;-85
2024/01/10 13:12:36;;;;;;;8.97;4.33;;;;;;;;;;12851774;23;20483;-84
2024/01/10 13:17:39;;;;;;;7.60;4.27;;;;;;;;;;12851405;23;20788;-83
2024/01/10 13:22:45;;;;;;;8.02;4.32;;;;;;;;;;12852717;23;20449;-84
2024/01/10 13:27:48;;;;;;;10.17;4.97;;;;;;;;;;12848963;23;20483;-84
2024/01/10 13:32:50;;;;;;;11.52;5.25;;;;;;;;;;12851175;23;20493;-83
2024/01/10 13:37:54;;;;;;;7.93;4.50;;;;;;;;;;12850883;23;20835;-84
2024/01/10 13:42:56;;;;;;;7.32;4.43;;;;;;;;;;12851306;23;20370;-84
2024/01/10 13:48:00;;;;;;;8.07;4.35;;;;;;;;;;12851728;23;20437;-83
2024/01/10 13:53:04;;;;;;;10.57;5.53;;;;;;;;;;12854835;23;20426;-84
2024/01/10 13:58:07;;;;;;;9.48;5.07;;;;;;;;;;12861194;23;20414;-83
2024/01/10 14:03:10;;;;;;;11.60;5.37;;;;;;;;;;12851204;23;20434;-83
2024/01/10 14:08:15;;;;;;;11.40;5.10;;;;;;;;;;12851688;23;20454;-84
2024/01/10 14:13:18;;;;;;;9.02;5.10;;;;;;;;;;12851621;23;20437;-84
2024/01/10 14:18:21;;;;;;;10.18;5.78;;;;;;;;;;12851241;23;20405;-84
2024/01/10 14:23:25;;;;;;;9.10;4.73;;;;;;;;;;12850483;23;20397;-83
2024/01/10 14:28:27;;;;;;;8.35;4.30;;;;;;;;;;12849644;23;20366;-84
2024/01/10 14:33:29;;;;;;;9.55;4.50;;;;;;;;;;12851750;23;20382;-83
2024/01/10 14:38:33;;;;;;;9.88;5.05;;;;;;;;;;12849907;23;20378;-84
2024/01/10 14:43:37;;;;;;;16.52;6.97;;;;;;;;;;12852345;23;20370;-85
2024/01/10 14:48:40;;;;;;;11.95;5.70;;;;;;;;;;12850557;23;20432;-85
2024/01/10 14:53:43;;;;;;;13.30;7.97;;;;;;;;;;12864692;23;20390;-85
2024/01/10 14:58:45;;;;;;;8.70;5.00;;;;;;;;;;12848868;23;20413;-85
2024/01/10 15:03:48;;;;;;;9.73;5.00;;;;;;;;;;12850350;23;20382;-85
2024/01/10 15:08:51;;;;;;;9.50;4.90;;;;;;;;;;12849550;23;20434;-85
2024/01/10 15:13:54;;;;;;;19.67;10.23;;;;;;;;;;12843717;23;20794;-85
2024/01/10 15:18:56;;;;;;;10.37;6.07;;;;;;;;;;12848127;23;20378;-84
2024/01/10 15:24:00;;;;;;;10.67;5.77;;;;;;;;;;12847881;23;20448;-85
2024/01/10 15:29:04;;;;;;;10.63;6.13;;;;;;;;;;12849378;23;20373;-85
2024/01/10 15:34:06;;;;;;;11.90;6.30;;;;;;;;;;12848322;23;20395;-84
2024/01/10 15:39:12;;;;;;;11.00;6.07;;;;;;;;;;12848056;23;20378;-85
2024/01/10 15:44:14;;;;;;;12.27;7.00;;;;;;;;;;12849377;23;20841;-84
2024/01/10 15:49:17;;;;;;;14.53;7.03;;;;;;;;;;12851547;23;20365;-84
2024/01/10 15:54:24;;;;;;;12.27;6.87;;;;;;;;;;12857045;23;20503;-84
2024/01/10 15:59:26;;;;;;;17.43;8.13;;;;;;;;;;12849905;23;20370;-85
2024/01/10 16:04:28;;;;;;;18.35;7.78;;;;;;;;;;12847256;23;20895;-83
2024/01/10 16:09:32;;;;;;;18.73;9.10;;;;;;;;;;12849534;23;20379;-83
2024/01/10 16:14:34;;;;;;;16.53;8.20;;;;;;;;;;12846801;23;20492;-85
2024/01/10 16:19:37;;;;;;;17.10;8.30;;;;;;;;;;12839480;23;20412;-84
2024/01/10 16:24:40;;;;;;;17.23;7.82;;;;;;;;;;12844852;23;20819;-85
2024/01/10 16:29:43;;;;;;;14.63;7.63;;;;;;;;;;12843569;23;20453;-84
2024/01/10 16:34:47;;;;;;;12.43;6.80;;;;;;;;;;12848937;23;20399;-85
2024/01/10 16:39:50;;;;;;;16.25;6.82;;;;;;;;;;12835774;23;20430;-86
2024/01/10 16:44:53;;;;;;;13.48;7.05;;;;;;;;;;12840310;23;20460;-86
2024/01/10 16:49:55;;;;;;;17.58;7.22;;;;;;;;;;12848959;23;20391;-84
2024/01/10 16:54:59;;;;;;;18.30;7.53;;;;;;;;;;12834768;23;20390;-83
2024/01/10 17:00:01;;;;;;;17.52;7.25;;;;;;;;;;12835547;23;20964;-84
2024/01/10 17:05:04;;;;;;;14.55;7.43;;;;;;;;;;12836647;23;20447;-84
2024/01/10 17:10:09;;;;;;;14.50;7.40;;;;;;;;;;12833560;23;20878;-83
2024/01/10 17:15:13;;;;;;;15.75;7.55;;;;;;;;;;12840207;23;20727;-82
2024/01/10 17:20:16;;;;;;;16.70;8.20;;;;;;;;;;12838746;23;20426;-83
2024/01/10 17:25:22;;;;;;;15.75;7.95;;;;;;;;;;12838442;23;20386;-82
2024/01/10 17:30:27;;;;;;;17.03;8.53;;;;;;;;;;12839567;23;20451;-81
2024/01/10 17:35:30;;;;;;;18.53;9.07;;;;;;;;;;12839022;23;20472;-83
2024/01/10 17:40:33;;;;;;;16.55;7.97;;;;;;;;;;12841306;23;20547;-84
2024/01/10 17:45:36;;;;;;;23.57;9.20;;;;;;;;;;12846788;23;20386;-82
2024/01/10 17:50:39;;;;;;;16.87;8.53;;;;;;;;;;12844968;23;20683;-84
2024/01/10 17:55:42;;;;;;;17.02;9.13;;;;;;;;;;12844915;23;20389;-84
2024/01/10 18:00:45;;;;;;;18.60;9.73;;;;;;;;;;12845367;23;20382;-82
2024/01/10 18:05:47;;;;;;;21.40;11.00;;;;;;;;;;12844153;23;20381;-84
2024/01/10 18:10:52;;;;;;;18.83;9.82;;;;;;;;;;12844222;23;20381;-84
2024/01/10 18:15:54;;;;;;;20.83;10.80;;;;;;;;;;12844177;23;20386;-84
2024/01/10 18:20:56;;;;;;;23.97;12.30;;;;;;;;;;12844659;23;20388;-84
2024/01/10 18:26:00;;;;;;;31.42;15.93;;;;;;;;;;12843394;23;20908;-83
2024/01/10 18:31:03;;;;;;;31.38;15.13;;;;;;;;;;12840455;23;20722;-83
2024/01/10 18:36:06;;;;;;;32.40;14.13;;;;;;;;;;12840746;23;20425;-83
2024/01/10 18:41:10;;;;;;;28.77;14.77;;;;;;;;;;12851528;23;20370;-83
2024/01/10 18:46:12;;;;;;;26.80;14.90;;;;;;;;;;12848581;23;20366;-84
2024/01/10 18:51:16;;;;;;;31.43;15.03;;;;;;;;;;12839058;23;20382;-84
2024/01/10 18:56:20;;;;;;;27.58;15.15;;;;;;;;;;12838523;23;20413;-84
2024/01/10 19:01:22;;;;;;;31.10;16.93;;;;;;;;;;12840198;23;20757;-82
2024/01/10 19:06:25;;;;;;;29.98;17.50;;;;;;;;;;12840926;23;20378;-84
2024/01/10 19:11:29;;;;;;;38.40;18.92;;;;;;;;;;12841316;23;20448;-83
2024/01/10 19:16:31;;;;;;;34.23;18.83;;;;;;;;;;12841022;23;20464;-83
2024/01/10 19:21:33;;;;;;;40.05;20.35;;;;;;;;;;12841190;23;20424;-83
2024/01/10 19:26:37;;;;;;;40.47;20.75;;;;;;;;;;12840049;23;20417;-83
2024/01/10 19:31:39;;;;;;;40.70;22.38;;;;;;;;;;12840989;23;20389;-82
2024/01/10 19:36:42;;;;;;;44.90;23.85;;;;;;;;;;12848358;23;20409;-83
2024/01/10 19:41:45;;;;;;;43.97;23.38;;;;;;;;;;12855177;23;20883;-83
2024/01/10 19:46:48;;;;;;;43.38;24.33;;;;;;;;;;12858705;23;20374;-85
2024/01/10 19:51:50;;;;;;;46.05;24.65;;;;;;;;;;12843757;23;20377;-85
2024/01/10 19:56:54;;;;;;;46.88;24.95;;;;;;;;;;12844829;23;20892;-85
2024/01/10 20:01:56;;;;;;;43.42;23.38;;;;;;;;;;12842502;23;20370;-86
2024/01/10 20:06:59;;;;;;;49.42;25.35;;;;;;;;;;12844926;23;20400;-86
2024/01/10 20:12:03;;;;;;;52.00;26.00;;;;;;;;;;12843072;23;20472;-84
2024/01/10 20:17:05;;;;;;;48.77;24.40;;;;;;;;;;12842529;23;20464;-86
2024/01/10 20:22:07;;;;;;;39.88;21.65;;;;;;;;;;12844602;23;20416;-85
2024/01/10 20:27:11;;;;;;;36.47;20.10;;;;;;;;;;12843362;23;20421;-85
2024/01/10 20:32:14;;;;;;;38.90;20.80;;;;;;;;;;12854845;23;20390;-86
2024/01/10 20:37:17;;;;;;;34.83;18.65;;;;;;;;;;12843871;23;20378;-86
2024/01/10 20:42:21;;;;;;;28.70;17.25;;;;;;;;;;12844503;23;20377;-86
2024/01/10 20:47:26;;;;;;;31.23;17.83;;;;;;;;;;12842587;23;20386;-85
2024/01/10 20:52:29;;;;;;;34.58;18.83;;;;;;;;;;12844276;23;20382;-86
2024/01/10 20:57:33;;;;;;;38.13;19.63;;;;;;;;;;12844087;23;20519;-86
2024/01/10 21:02:35;;;;;;;30.90;17.42;;;;;;;;;;12845004;23;20444;-86
2024/01/10 21:07:37;;;;;;;31.95;17.20;;;;;;;;;;12844060;23;20432;-86
2024/01/10 21:12:41;;;;;;;32.47;18.25;;;;;;;;;;12843380;23;20915;-86
2024/01/10 21:17:44;;;;;;;32.40;17.70;;;;;;;;;;12845019;23;20444;-85
2024/01/10 21:22:46;;;;;;;29.27;17.02;;;;;;;;;;12847591;23;20382;-86
2024/01/10 21:27:50;;;;;;;34.22;18.42;;;;;;;;;;12856523;23;20382;-87
2024/01/10 21:32:53;;;;;;;34.65;19.23;;;;;;;;;;12843941;23;20444;-86
2024/01/10 21:37:55;;;;;;;34.10;17.55;;;;;;;;;;12846002;23;20386;-87
2024/01/10 21:42:59;;;;;;;33.47;17.20;;;;;;;;;;12845274;23;20382;-87
2024/01/10 21:48:01;;;;;;;30.42;17.17;;;;;;;;;;12839186;23;20382;-87
2024/01/10 21:53:04;;;;;;;32.13;17.37;;;;;;;;;;12843479;23;20443;-87
2024/01/10 21:58:08;;;;;;;37.22;18.40;;;;;;;;;;12844530;23;20753;-87
2024/01/10 22:03:10;;;;;;;37.38;18.85;;;;;;;;;;12846721;23;20432;-86
2024/01/10 22:08:12;;;;;;;37.38;19.67;;;;;;;;;;12847328;23;20444;-86
2024/01/10 22:13:16;;;;;;;34.97;18.55;;;;;;;;;;12845753;23;20448;-81
2024/01/10 22:18:19;;;;;;;33.92;18.65;;;;;;;;;;12839737;23;20386;-80
2024/01/10 22:23:21;;;;;;;35.42;19.88;;;;;;;;;;12847991;23;20382;-80
2024/01/10 22:28:25;;;;;;;39.72;20.38;;;;;;;;;;12845930;23;20394;-81
2024/01/10 22:33:27;;;;;;;38.38;20.85;;;;;;;;;;12843355;23;20754;-80
2024/01/10 22:38:30;;;;;;;35.78;19.95;;;;;;;;;;12843850;23;20394;-80
2024/01/10 22:43:33;;;;;;;38.33;22.13;;;;;;;;;;12842001;23;20432;-80
2024/01/10 22:48:36;;;;;;;37.10;21.65;;;;;;;;;;12842919;23;20440;-80
2024/01/10 22:53:38;;;;;;;36.08;20.30;;;;;;;;;;12840528;23;20381;-81
2024/01/10 22:58:42;;;;;;;36.15;20.42;;;;;;;;;;12841840;23;20386;-80
2024/01/10 23:03:44;;;;;;;38.07;20.80;;;;;;;;;;12842628;23;20386;-80
2024/01/10 23:08:46;;;;;;;36.05;17.95;;;;;;;;;;12847753;23;20377;-81
2024/01/10 23:13:50;;;;;;;30.05;17.45;;;;;;;;;;12850404;23;20370;-80
2024/01/10 23:18:52;;;;;;;33.72;17.92;;;;;;;;;;12853473;23;20858;-81
2024/01/10 23:23:55;;;;;;;31.05;17.45;;;;;;;;;;12858009;23;20436;-80
2024/01/10 23:28:59;;;;;;;31.60;15.73;;;;;;;;;;12850805;23;20528;-81
2024/01/10 23:34:01;;;;;;;30.50;16.35;;;;;;;;;;12852331;23;20362;-81
2024/01/10 23:39:04;;;;;;;27.73;15.23;;;;;;;;;;12850616;23;20966;-81
2024/01/10 23:44:08;;;;;;;23.38;13.20;;;;;;;;;;12853537;23;20370;-80
2024/01/10 23:49:10;;;;;;;24.08;13.80;;;;;;;;;;12852069;23;20374;-81
2024/01/10 23:54:12;;;;;;;27.80;14.07;;;;;;;;;;12851919;23;20374;-80
2024/01/10 23:59:16;;;;;;;30.00;15.35;;;;;;;;;;12850351;23;20440;-80
